createdAt,value
2023-04-24T00:00:20.267Z,1.75
2023-04-24T00:01:20.250Z,1.73
2023-04-24T00:02:20.453Z,1.69
2023-04-24T00:03:20.354Z,1.80
2023-04-24T00:04:20.434Z,1.76
2023-04-24T00:05:20.278Z,1.45
2023-04-24T00:06:20.264Z,1.52
2023-04-24T00:07:20.232Z,1.44
2023-04-24T00:08:20.231Z,1.47
2023-04-24T00:09:20.238Z,1.51
2023-04-24T00:10:20.270Z,1.48
2023-04-24T00:11:20.265Z,1.38
2023-04-24T00:12:20.278Z,1.30
2023-04-24T00:13:20.268Z,1.31
2023-04-24T00:14:20.305Z,1.13
2023-04-24T00:15:20.303Z,1.05
2023-04-24T00:16:20.373Z,0.96
2023-04-24T00:17:20.347Z,0.83
2023-04-24T00:18:20.394Z,0.81
2023-04-24T00:19:20.406Z,0.76
2023-04-24T00:20:20.433Z,0.68
2023-04-24T00:21:20.510Z,0.64
2023-04-24T00:22:20.571Z,0.60
2023-04-24T00:23:20.562Z,0.55
2023-04-24T00:24:20.650Z,0.54
2023-04-24T00:25:20.656Z,0.59
2023-04-24T00:26:20.690Z,0.65
2023-04-24T00:27:20.749Z,0.67
2023-04-24T00:28:20.767Z,0.63
2023-04-24T00:29:20.823Z,0.63
2023-04-24T00:30:20.864Z,0.62
2023-04-24T00:31:20.873Z,0.62
2023-04-24T00:32:21.021Z,0.67
2023-04-24T00:33:20.940Z,0.67
2023-04-24T00:34:20.976Z,0.69
2023-04-24T00:35:21.020Z,0.70
2023-04-24T00:36:21.043Z,0.74
2023-04-24T00:37:21.079Z,0.75
2023-04-24T00:38:21.078Z,0.74
2023-04-24T00:39:21.143Z,0.71
2023-04-24T00:40:21.152Z,0.75
2023-04-24T00:41:21.163Z,0.74
2023-04-24T00:42:21.225Z,0.76
2023-04-24T00:43:21.250Z,0.73
2023-04-24T00:44:21.246Z,0.74
2023-04-24T00:45:21.317Z,0.75
2023-04-24T00:46:21.319Z,0.85
2023-04-24T00:47:21.317Z,0.92
2023-04-24T00:48:21.378Z,1.00
2023-04-24T00:49:21.359Z,1.03
2023-04-24T00:50:21.362Z,1.07
2023-04-24T00:51:21.410Z,1.14
2023-04-24T00:52:21.521Z,1.13
2023-04-24T00:53:21.423Z,1.19
2023-04-24T00:54:21.448Z,1.15
2023-04-24T00:55:21.471Z,1.00
2023-04-24T00:56:21.483Z,1.04
2023-04-24T00:57:21.495Z,1.07
2023-04-24T00:58:21.529Z,1.05
2023-04-24T00:59:21.574Z,1.09
2023-04-24T01:00:21.554Z,1.14
2023-04-24T01:01:21.604Z,1.19
2023-04-24T01:02:21.735Z,1.29
2023-04-24T01:03:21.833Z,1.35
2023-04-24T01:04:21.796Z,1.42
2023-04-24T01:05:21.694Z,1.53
2023-04-24T01:06:21.700Z,1.64
2023-04-24T01:07:21.720Z,1.70
2023-04-24T01:08:21.740Z,1.80
2023-04-24T01:09:21.721Z,1.94
2023-04-24T01:10:21.712Z,2.01
2023-04-24T01:11:21.770Z,1.96
2023-04-24T01:12:21.755Z,2.11
2023-04-24T01:13:21.800Z,2.42
2023-04-24T01:14:21.776Z,2.44
2023-04-24T01:15:21.798Z,2.44
2023-04-24T01:16:21.893Z,2.56
2023-04-24T01:17:21.833Z,2.42
2023-04-24T01:18:21.828Z,2.57
2023-04-24T01:19:21.862Z,2.60
2023-04-24T01:20:21.838Z,2.71
2023-04-24T01:21:21.857Z,2.77
2023-04-24T01:22:21.906Z,2.71
2023-04-24T01:23:21.886Z,2.96
2023-04-24T01:24:21.913Z,3.09
2023-04-24T01:25:21.912Z,3.19
2023-04-24T01:26:21.922Z,3.40
2023-04-24T01:27:21.955Z,3.65
2023-04-24T01:28:21.965Z,3.74
2023-04-24T01:29:21.947Z,3.93
2023-04-24T01:30:21.948Z,4.12
2023-04-24T01:31:22.028Z,4.26
2023-04-24T01:32:22.043Z,3.96
2023-04-24T01:33:21.955Z,4.15
2023-04-24T01:34:21.975Z,4.41
2023-04-24T01:35:21.968Z,4.64
2023-04-24T01:36:21.963Z,4.75
2023-04-24T01:37:21.976Z,4.91
2023-04-24T01:38:21.998Z,4.96
2023-04-24T01:39:21.966Z,5.33
2023-04-24T01:40:21.974Z,5.37
2023-04-24T01:41:21.983Z,5.25
2023-04-24T01:42:21.986Z,5.39
2023-04-24T01:43:22.001Z,5.76
2023-04-24T01:44:22.017Z,5.88
2023-04-24T01:45:22.011Z,6.05
2023-04-24T01:46:22.046Z,6.40
2023-04-24T01:47:22.023Z,6.31
2023-04-24T01:48:21.998Z,6.48
2023-04-24T01:49:22.009Z,6.65
2023-04-24T01:50:21.998Z,7.24
2023-04-24T01:51:22.031Z,7.05
2023-04-24T01:52:21.980Z,6.88
2023-04-24T01:53:21.991Z,7.84
2023-04-24T01:54:21.988Z,8.54
2023-04-24T01:55:21.995Z,9.40
2023-04-24T01:56:21.981Z,10.92
2023-04-24T01:57:21.989Z,10.96
2023-04-24T01:58:21.959Z,11.85
2023-04-24T01:59:21.993Z,11.79
2023-04-24T02:00:21.989Z,10.99
2023-04-24T02:01:22.201Z,11.57
2023-04-24T02:02:22.182Z,11.70
2023-04-24T02:03:22.132Z,11.50
2023-04-24T02:04:22.070Z,11.41
2023-04-24T02:05:22.050Z,11.87
2023-04-24T02:06:22.037Z,12.60
2023-04-24T02:07:22.081Z,13.76
2023-04-24T02:08:22.073Z,15.54
2023-04-24T02:09:22.045Z,18.07
2023-04-24T02:10:22.082Z,20.09
2023-04-24T02:11:22.079Z,20.76
2023-04-24T02:12:22.102Z,18.91
2023-04-24T02:13:22.188Z,18.95
2023-04-24T02:14:22.146Z,17.26
2023-04-24T02:15:22.164Z,15.39
2023-04-24T02:16:22.168Z,15.76
2023-04-24T02:17:22.156Z,15.42
2023-04-24T02:18:22.122Z,14.26
2023-04-24T02:19:22.133Z,13.13
2023-04-24T02:20:22.118Z,12.63
2023-04-24T02:21:22.168Z,12.14
2023-04-24T02:22:22.132Z,12.01
2023-04-24T02:23:22.137Z,11.43
2023-04-24T02:24:22.139Z,10.91
2023-04-24T02:25:22.135Z,11.25
2023-04-24T02:26:22.119Z,11.02
2023-04-24T02:27:22.132Z,11.72
2023-04-24T02:28:22.155Z,12.55
2023-04-24T02:29:22.149Z,13.64
2023-04-24T02:30:22.120Z,13.83
2023-04-24T02:31:22.142Z,12.65
2023-04-24T02:32:22.127Z,12.01
2023-04-24T02:33:22.105Z,13.60
2023-04-24T02:34:22.120Z,14.59
2023-04-24T02:35:22.147Z,16.70
2023-04-24T02:36:22.091Z,17.07
2023-04-24T02:37:22.118Z,18.61
2023-04-24T02:38:22.149Z,20.40
2023-04-24T02:39:22.131Z,20.68
2023-04-24T02:40:22.189Z,21.03
2023-04-24T02:41:22.211Z,23.28
2023-04-24T02:42:22.214Z,24.05
2023-04-24T02:43:22.228Z,28.22
2023-04-24T02:44:22.287Z,31.78
2023-04-24T02:45:22.323Z,33.80
2023-04-24T02:46:22.432Z,36.88
2023-04-24T02:47:22.467Z,38.83
2023-04-24T02:48:22.483Z,38.88
2023-04-24T02:49:22.572Z,41.91
2023-04-24T02:50:22.592Z,36.88
2023-04-24T02:51:22.671Z,35.41
2023-04-24T02:52:22.735Z,37.40
2023-04-24T02:53:22.788Z,39.60
2023-04-24T02:54:22.842Z,42.30
2023-04-24T02:55:22.921Z,48.78
2023-04-24T02:56:22.986Z,48.49
2023-04-24T02:57:23.026Z,45.63
2023-04-24T02:58:23.072Z,38.14
2023-04-24T02:59:23.092Z,36.00
2023-04-24T03:00:23.150Z,31.91
2023-04-24T03:01:23.224Z,30.60
2023-04-24T03:02:23.351Z,33.10
2023-04-24T03:03:23.390Z,38.04
2023-04-24T03:04:23.511Z,45.35
2023-04-24T03:05:23.397Z,50.31
2023-04-24T03:06:23.438Z,53.98
2023-04-24T03:07:23.507Z,57.11
2023-04-24T03:08:23.545Z,57.69
2023-04-24T03:09:23.637Z,60.31
2023-04-24T03:10:23.791Z,61.62
2023-04-24T03:11:23.698Z,68.47
2023-04-24T03:12:23.745Z,77.45
2023-04-24T03:13:23.774Z,81.30
2023-04-24T03:14:23.806Z,88.35
2023-04-24T03:15:23.891Z,87.90
2023-04-24T03:16:24.097Z,82.31
2023-04-24T03:17:24.040Z,73.20
2023-04-24T03:18:24.094Z,72.53
2023-04-24T03:19:24.150Z,70.29
2023-04-24T03:20:24.265Z,76.56
2023-04-24T03:21:24.277Z,87.94
2023-04-24T03:22:24.729Z,90.00
2023-04-24T03:23:24.414Z,100.28
2023-04-24T03:24:24.460Z,100.75
2023-04-24T03:25:24.530Z,101.88
2023-04-24T03:26:24.591Z,110.76
2023-04-24T03:27:24.652Z,122.67
2023-04-24T03:28:24.680Z,118.09
2023-04-24T03:29:24.751Z,117.66
2023-04-24T03:30:24.805Z,115.05
2023-04-24T03:31:24.899Z,129.99
2023-04-24T03:32:24.960Z,129.18
2023-04-24T03:33:25.011Z,153.48
2023-04-24T03:34:25.056Z,142.75
2023-04-24T03:35:25.175Z,139.73
2023-04-24T03:36:25.192Z,138.71
2023-04-24T03:37:25.250Z,143.87
2023-04-24T03:38:25.291Z,142.97
2023-04-24T03:39:25.373Z,140.82
2023-04-24T03:40:25.410Z,144.28
2023-04-24T03:41:25.472Z,139.83
2023-04-24T03:42:25.537Z,138.70
2023-04-24T03:43:25.597Z,155.10
2023-04-24T03:44:25.636Z,151.15
2023-04-24T03:45:25.697Z,154.59
2023-04-24T03:46:25.804Z,147.14
2023-04-24T03:47:25.859Z,189.67
2023-04-24T03:48:25.878Z,188.68
2023-04-24T03:49:25.925Z,178.77
2023-04-24T03:50:25.993Z,172.94
2023-04-24T03:51:26.021Z,161.74
2023-04-24T03:52:26.084Z,151.16
2023-04-24T03:53:26.142Z,166.00
2023-04-24T03:54:26.223Z,160.75
2023-04-24T03:55:26.256Z,184.24
2023-04-24T03:56:26.368Z,211.73
2023-04-24T03:57:26.375Z,189.38
2023-04-24T03:58:26.415Z,185.98
2023-04-24T03:59:26.485Z,185.16
2023-04-24T04:00:26.550Z,230.75
2023-04-24T04:01:26.587Z,221.55
2023-04-24T04:02:26.784Z,201.08
2023-04-24T04:03:26.861Z,212.22
2023-04-24T04:04:26.976Z,200.19
2023-04-24T04:05:26.898Z,204.97
2023-04-24T04:06:26.851Z,205.78
2023-04-24T04:07:26.905Z,218.08
2023-04-24T04:08:26.979Z,210.20
2023-04-24T04:09:27.018Z,210.50
2023-04-24T04:10:27.081Z,219.31
2023-04-24T04:11:27.129Z,205.67
2023-04-24T04:12:27.178Z,191.17
2023-04-24T04:13:27.201Z,194.78
2023-04-24T04:14:27.298Z,194.17
2023-04-24T04:15:27.339Z,194.05
2023-04-24T04:16:27.441Z,207.77
2023-04-24T04:17:27.405Z,239.44
2023-04-24T04:18:27.480Z,214.79
2023-04-24T04:19:27.533Z,216.61
2023-04-24T04:20:27.578Z,205.20
2023-04-24T04:21:27.650Z,193.49
2023-04-24T04:22:27.711Z,188.16
2023-04-24T04:23:27.756Z,191.58
2023-04-24T04:24:27.840Z,182.69
2023-04-24T04:25:27.900Z,203.65
2023-04-24T04:26:27.941Z,196.15
2023-04-24T04:27:28.019Z,206.69
2023-04-24T04:28:28.053Z,197.05
2023-04-24T04:29:28.109Z,188.02
2023-04-24T04:30:28.162Z,244.85
2023-04-24T04:31:28.211Z,281.17
2023-04-24T04:32:28.268Z,253.96
2023-04-24T04:33:28.297Z,281.17
2023-04-24T04:34:28.316Z,307.26
2023-04-24T04:35:28.364Z,309.24
2023-04-24T04:36:28.436Z,274.88
2023-04-24T04:37:28.470Z,275.48
2023-04-24T04:38:28.569Z,278.80
2023-04-24T04:39:28.599Z,289.79
2023-04-24T04:40:28.652Z,280.39
2023-04-24T04:41:28.697Z,279.23
2023-04-24T04:42:28.762Z,260.75
2023-04-24T04:43:28.798Z,256.74
2023-04-24T04:44:30.353Z,238.14
2023-04-24T04:45:28.919Z,226.81
2023-04-24T04:46:28.961Z,210.81
2023-04-24T04:47:29.028Z,207.06
2023-04-24T04:48:29.058Z,189.52
2023-04-24T04:49:29.099Z,191.39
2023-04-24T04:50:29.158Z,194.62
2023-04-24T04:51:29.254Z,192.83
2023-04-24T04:52:29.322Z,183.98
2023-04-24T04:53:29.298Z,176.74
2023-04-24T04:54:29.331Z,173.20
2023-04-24T04:55:29.378Z,181.50
2023-04-24T04:56:29.450Z,191.40
2023-04-24T04:57:29.475Z,134.98
2023-04-24T04:58:29.518Z,98.48
2023-04-24T04:59:29.608Z,86.78
2023-04-24T05:00:29.659Z,78.57
2023-04-24T05:01:36.723Z,71.40
2023-04-24T05:02:29.779Z,71.66
2023-04-24T05:03:29.845Z,71.85
2023-04-24T05:04:29.977Z,63.60
2023-04-24T05:05:29.658Z,68.64
2023-04-24T05:06:29.638Z,84.35
2023-04-24T05:07:29.658Z,106.23
2023-04-24T05:08:29.640Z,128.20
2023-04-24T05:09:29.620Z,147.99
2023-04-24T05:10:29.625Z,146.59
2023-04-24T05:11:29.618Z,164.21
2023-04-24T05:12:29.612Z,167.55
2023-04-24T05:13:39.160Z,147.72
2023-04-24T05:14:30.600Z,148.31
2023-04-24T05:15:29.592Z,150.49
2023-04-24T05:16:29.619Z,162.44
2023-04-24T05:17:29.645Z,164.04
2023-04-24T05:18:29.543Z,163.57
2023-04-24T05:19:29.560Z,154.69
2023-04-24T05:20:29.534Z,127.66
2023-04-24T05:21:29.552Z,91.88
2023-04-24T05:22:29.537Z,82.70
2023-04-24T05:23:29.546Z,83.40
2023-04-24T05:24:29.554Z,81.01
2023-04-24T05:25:29.553Z,87.44
2023-04-24T05:26:29.577Z,80.26
2023-04-24T05:27:29.603Z,77.40
2023-04-24T05:28:29.679Z,80.69
2023-04-24T05:29:29.713Z,76.52
2023-04-24T05:30:29.777Z,77.64
2023-04-24T05:31:29.846Z,90.89
2023-04-24T05:32:29.915Z,78.12
2023-04-24T05:33:30.301Z,93.37
2023-04-24T05:34:29.977Z,104.40
2023-04-24T05:35:30.038Z,101.34
2023-04-24T05:36:30.082Z,101.31
2023-04-24T05:37:30.144Z,112.17
2023-04-24T05:38:30.391Z,121.19
2023-04-24T05:39:30.271Z,146.45
2023-04-24T05:40:30.293Z,234.82
2023-04-24T05:41:30.343Z,296.02
2023-04-24T05:42:30.385Z,299.39
2023-04-24T05:43:30.889Z,262.28
2023-04-24T05:44:30.469Z,265.77
2023-04-24T05:45:30.567Z,342.77
2023-04-24T05:46:37.604Z,456.59
2023-04-24T05:47:30.537Z,458.45
2023-04-24T05:48:30.822Z,483.28
2023-04-24T05:49:30.518Z,612.88
2023-04-24T05:50:30.574Z,954.63
2023-04-24T05:51:30.507Z,1000.00
2023-04-24T05:52:30.507Z,1000.00
2023-04-24T05:53:30.863Z,1000.00
2023-04-24T05:54:30.481Z,1000.00
2023-04-24T05:55:30.526Z,1000.00
2023-04-24T05:56:30.494Z,1000.00
2023-04-24T05:57:30.467Z,1000.00
2023-04-24T05:58:30.470Z,1000.00
2023-04-24T05:59:30.480Z,1000.00
2023-04-24T06:00:30.461Z,1000.00
2023-04-24T06:01:30.456Z,1000.00
2023-04-24T06:02:30.608Z,1000.00
2023-04-24T06:03:30.604Z,1000.00
2023-04-24T06:04:30.716Z,1000.00
2023-04-24T06:05:30.538Z,1000.00
2023-04-24T06:06:30.441Z,1000.00
2023-04-24T06:07:30.416Z,1000.00
2023-04-24T06:08:30.404Z,1000.00
2023-04-24T06:09:30.408Z,1000.00
2023-04-24T06:10:30.375Z,1000.00
2023-04-24T06:11:30.364Z,1000.00
2023-04-24T06:12:30.348Z,1000.00
2023-04-24T06:13:30.365Z,1000.00
2023-04-24T06:14:30.346Z,1000.00
2023-04-24T06:15:30.354Z,1000.00
2023-04-24T06:16:30.370Z,1000.00
2023-04-24T06:17:30.336Z,1000.00
2023-04-24T06:18:30.319Z,1000.00
2023-04-24T06:19:30.328Z,1000.00
2023-04-24T06:20:30.313Z,1000.00
2023-04-24T06:21:30.330Z,1000.00
2023-04-24T06:22:30.388Z,1000.00
2023-04-24T06:23:30.416Z,1000.00
2023-04-24T06:24:30.500Z,1000.00
2023-04-24T06:25:30.525Z,1000.00
2023-04-24T06:26:30.570Z,953.24
2023-04-24T06:27:30.631Z,851.95
2023-04-24T06:28:30.681Z,755.16
2023-04-24T06:29:30.748Z,832.60
2023-04-24T06:30:30.788Z,830.14
2023-04-24T06:31:30.895Z,779.01
2023-04-24T06:32:30.941Z,832.33
2023-04-24T06:33:31.058Z,746.71
2023-04-24T06:34:31.017Z,751.13
2023-04-24T06:35:31.112Z,867.01
2023-04-24T06:36:31.140Z,668.78
2023-04-24T06:37:31.219Z,707.30
2023-04-24T06:38:31.365Z,608.08
2023-04-24T06:39:31.293Z,540.99
2023-04-24T06:40:31.386Z,404.72
2023-04-24T06:41:31.374Z,588.81
2023-04-24T06:42:31.371Z,603.25
2023-04-24T06:43:31.396Z,496.96
2023-04-24T06:44:31.371Z,432.28
2023-04-24T06:45:31.372Z,297.13
2023-04-24T06:46:31.458Z,261.57
2023-04-24T06:47:31.372Z,281.16
2023-04-24T06:48:31.395Z,288.08
2023-04-24T06:49:31.336Z,257.92
2023-04-24T06:50:31.367Z,252.39
2023-04-24T06:51:31.353Z,246.56
2023-04-24T06:52:31.347Z,226.37
2023-04-24T06:53:31.349Z,201.21
2023-04-24T06:54:31.327Z,201.46
2023-04-24T06:55:31.334Z,248.02
2023-04-24T06:56:31.354Z,249.66
2023-04-24T06:57:31.379Z,274.62
2023-04-24T06:58:31.337Z,208.81
2023-04-24T06:59:31.317Z,174.23
2023-04-24T07:00:31.337Z,153.09
2023-04-24T07:01:31.320Z,144.48
2023-04-24T07:02:31.447Z,142.80
2023-04-24T07:03:31.468Z,139.36
2023-04-24T07:04:31.466Z,135.34
2023-04-24T07:05:31.329Z,128.88
2023-04-24T07:06:31.306Z,113.50
2023-04-24T07:07:31.357Z,96.95
2023-04-24T07:08:31.332Z,92.31
2023-04-24T07:09:31.409Z,81.96
2023-04-24T07:10:31.377Z,81.85
2023-04-24T07:11:31.489Z,67.43
2023-04-24T07:12:31.342Z,62.83
2023-04-24T07:13:31.388Z,64.19
2023-04-24T07:14:31.373Z,64.07
2023-04-24T07:15:31.383Z,68.53
2023-04-24T07:16:32.493Z,66.27
2023-04-24T07:17:31.391Z,60.31
2023-04-24T07:18:31.355Z,65.46
2023-04-24T07:19:31.403Z,71.34
2023-04-24T07:20:31.343Z,77.71
2023-04-24T07:21:31.337Z,77.70
2023-04-24T07:22:31.333Z,61.93
2023-04-24T07:23:31.316Z,62.33
2023-04-24T07:24:31.334Z,65.71
2023-04-24T07:25:31.311Z,64.81
2023-04-24T07:26:31.304Z,60.48
2023-04-24T07:27:31.322Z,61.08
2023-04-24T07:28:31.300Z,66.69
2023-04-24T07:29:31.257Z,66.12
2023-04-24T07:30:31.288Z,83.34
2023-04-24T07:31:31.321Z,102.19
2023-04-24T07:32:31.228Z,112.43
2023-04-24T07:33:31.273Z,117.05
2023-04-24T07:34:31.371Z,117.41
2023-04-24T07:35:31.286Z,98.89
2023-04-24T07:36:31.317Z,103.41
2023-04-24T07:37:31.362Z,92.10
2023-04-24T07:38:31.381Z,94.26
2023-04-24T07:39:31.873Z,82.63
2023-04-24T07:40:31.433Z,83.80
2023-04-24T07:41:31.454Z,91.37
2023-04-24T07:42:31.508Z,130.58
2023-04-24T07:43:31.519Z,165.42
2023-04-24T07:44:31.938Z,176.82
2023-04-24T07:45:31.623Z,136.28
2023-04-24T07:46:31.703Z,110.86
2023-04-24T07:47:31.704Z,106.80
2023-04-24T07:48:31.695Z,74.02
2023-04-24T07:49:31.748Z,49.57
2023-04-24T07:50:32.378Z,37.49
2023-04-24T07:51:31.828Z,32.68
2023-04-24T07:52:31.889Z,33.16
2023-04-24T07:53:31.921Z,34.48
2023-04-24T07:54:32.398Z,30.40
2023-04-24T07:55:31.993Z,34.56
2023-04-24T07:56:32.118Z,38.71
2023-04-24T07:57:32.110Z,48.19
2023-04-24T07:58:32.121Z,46.69
2023-04-24T07:59:32.189Z,40.02
2023-04-24T08:00:32.292Z,37.97
2023-04-24T08:01:32.223Z,35.91
2023-04-24T08:02:32.486Z,36.62
2023-04-24T08:03:32.502Z,37.14
2023-04-24T08:04:32.541Z,37.17
2023-04-24T08:05:32.512Z,37.43
2023-04-24T08:06:32.488Z,30.74
2023-04-24T08:07:32.520Z,31.56
2023-04-24T08:08:32.507Z,34.08
2023-04-24T08:09:32.986Z,36.42
2023-04-24T08:10:32.603Z,34.32
2023-04-24T08:11:32.624Z,29.80
2023-04-24T08:12:32.671Z,26.84
2023-04-24T08:13:32.686Z,29.98
2023-04-24T08:14:32.909Z,35.16
2023-04-24T08:15:32.764Z,45.38
2023-04-24T08:16:32.871Z,51.73
2023-04-24T08:17:32.820Z,64.49
2023-04-24T08:18:32.859Z,62.69
2023-04-24T08:19:32.950Z,70.97
2023-04-24T08:20:32.858Z,66.86
2023-04-24T08:21:32.890Z,69.98
2023-04-24T08:22:32.955Z,86.41
2023-04-24T08:23:32.883Z,117.14
2023-04-24T08:24:32.862Z,144.51
2023-04-24T08:25:32.864Z,169.92
2023-04-24T08:26:32.886Z,195.03
2023-04-24T08:27:32.887Z,306.23
2023-04-24T08:28:33.003Z,374.19
2023-04-24T08:29:33.002Z,338.23
2023-04-24T08:30:33.055Z,365.60
2023-04-24T08:31:33.175Z,347.52
2023-04-24T08:32:33.204Z,339.04
2023-04-24T08:33:33.242Z,227.20
2023-04-24T08:34:33.401Z,263.24
2023-04-24T08:35:33.306Z,509.54
2023-04-24T08:36:45.785Z,562.71
2023-04-24T08:37:34.345Z,562.99
2023-04-24T08:38:33.399Z,467.29
2023-04-24T08:39:33.402Z,459.98
2023-04-24T08:40:33.389Z,362.84
2023-04-24T08:41:33.346Z,200.99
2023-04-24T08:42:33.324Z,136.60
2023-04-24T08:43:33.349Z,145.82
2023-04-24T08:44:33.415Z,143.20
2023-04-24T08:45:33.316Z,126.53
2023-04-24T08:46:33.352Z,100.50
2023-04-24T08:47:33.377Z,121.06
2023-04-24T08:48:33.434Z,131.20
2023-04-24T08:49:33.496Z,100.01
2023-04-24T08:50:33.568Z,106.57
2023-04-24T08:51:33.681Z,94.93
2023-04-24T08:52:33.645Z,77.07
2023-04-24T08:53:33.715Z,88.21
2023-04-24T08:54:33.937Z,91.27
2023-04-24T08:55:33.704Z,114.74
2023-04-24T08:56:33.710Z,121.88
2023-04-24T08:57:33.714Z,99.92
2023-04-24T08:58:33.716Z,73.87
2023-04-24T08:59:33.968Z,61.71
2023-04-24T09:00:33.708Z,64.69
2023-04-24T09:01:33.712Z,88.93
2023-04-24T09:02:33.853Z,83.31
2023-04-24T09:03:33.762Z,66.34
2023-04-24T09:04:33.931Z,69.88
2023-04-24T09:05:33.739Z,68.88
2023-04-24T09:06:33.766Z,60.57
2023-04-24T09:07:33.841Z,72.19
2023-04-24T09:08:33.881Z,60.58
2023-04-24T09:09:33.930Z,55.45
2023-04-24T09:10:34.026Z,91.73
2023-04-24T09:11:34.076Z,105.75
2023-04-24T09:12:34.068Z,95.96
2023-04-24T09:13:34.137Z,85.59
2023-04-24T09:14:34.218Z,68.37
2023-04-24T09:15:34.253Z,80.93
2023-04-24T09:16:36.451Z,65.02
2023-04-24T09:17:34.533Z,50.73
2023-04-24T09:18:34.468Z,564.32
2023-04-24T09:19:34.484Z,176.57
2023-04-24T09:20:34.553Z,87.81
2023-04-24T09:21:34.626Z,61.63
2023-04-24T09:22:34.620Z,49.58
2023-04-24T09:23:34.717Z,37.05
2023-04-24T09:24:34.747Z,43.09
2023-04-24T09:25:34.954Z,38.37
2023-04-24T09:26:34.856Z,29.30
2023-04-24T09:27:34.921Z,32.41
2023-04-24T09:28:34.954Z,26.72
2023-04-24T09:29:35.018Z,24.96
2023-04-24T09:30:35.072Z,24.73
2023-04-24T09:31:35.131Z,23.29
2023-04-24T09:32:35.101Z,23.12
2023-04-24T09:33:35.144Z,28.27
2023-04-24T09:34:35.189Z,29.50
2023-04-24T09:35:35.407Z,30.74
2023-04-24T09:36:35.247Z,22.93
2023-04-24T09:37:35.316Z,21.16
2023-04-24T09:38:35.364Z,21.72
2023-04-24T09:39:35.393Z,22.42
2023-04-24T09:40:35.930Z,20.47
2023-04-24T09:41:35.481Z,22.80
2023-04-24T09:42:35.518Z,36.57
2023-04-24T09:43:35.585Z,38.78
2023-04-24T09:44:35.630Z,46.74
2023-04-24T09:45:36.099Z,63.01
2023-04-24T09:46:35.748Z,90.18
2023-04-24T09:47:35.698Z,106.93
2023-04-24T09:48:35.698Z,86.04
2023-04-24T09:49:35.724Z,81.42
2023-04-24T09:50:35.823Z,61.59
2023-04-24T09:51:35.837Z,51.26
2023-04-24T09:52:35.890Z,58.43
2023-04-24T09:53:35.987Z,47.97
2023-04-24T09:54:36.043Z,33.24
2023-04-24T09:55:36.092Z,42.46
2023-04-24T09:56:36.139Z,38.94
2023-04-24T09:57:36.260Z,32.51
2023-04-24T09:58:36.337Z,24.06
2023-04-24T09:59:37.452Z,21.28
2023-04-24T10:00:36.535Z,22.36
2023-04-24T10:01:36.522Z,20.18
2023-04-24T10:02:36.669Z,19.26
2023-04-24T10:03:36.669Z,24.74
2023-04-24T10:04:36.764Z,29.60
2023-04-24T10:05:36.691Z,33.79
2023-04-24T10:06:36.755Z,27.75
2023-04-24T10:07:36.800Z,24.89
2023-04-24T10:08:36.827Z,23.99
2023-04-24T10:09:36.894Z,23.55
2023-04-24T10:10:37.406Z,25.61
2023-04-24T10:11:37.013Z,20.06
2023-04-24T10:12:37.061Z,20.14
2023-04-24T10:13:37.846Z,18.90
2023-04-24T10:14:37.222Z,13.55
2023-04-24T10:15:37.458Z,13.75
2023-04-24T10:16:37.324Z,17.62
2023-04-24T10:17:37.400Z,22.87
2023-04-24T10:18:37.446Z,24.43
2023-04-24T10:19:37.575Z,26.54
2023-04-24T10:20:38.015Z,28.31
2023-04-24T10:21:37.608Z,32.70
2023-04-24T10:22:37.705Z,27.39
2023-04-24T10:23:37.787Z,28.05
2023-04-24T10:24:37.828Z,18.69
2023-04-24T10:25:37.994Z,20.45
2023-04-24T10:26:37.958Z,23.73
2023-04-24T10:27:38.008Z,22.28
2023-04-24T10:28:38.079Z,23.84
2023-04-24T10:29:38.126Z,25.15
2023-04-24T10:30:38.201Z,28.47
2023-04-24T10:31:38.270Z,26.76
2023-04-24T10:32:38.312Z,26.30
2023-04-24T10:33:38.355Z,26.98
2023-04-24T10:34:38.429Z,16.79
2023-04-24T10:35:38.495Z,14.62
2023-04-24T10:36:38.571Z,19.31
2023-04-24T10:37:39.454Z,23.60
2023-04-24T10:38:38.672Z,23.53
2023-04-24T10:39:38.774Z,26.74
2023-04-24T10:40:38.965Z,14.57
2023-04-24T10:41:38.792Z,11.77
2023-04-24T10:42:38.784Z,13.72
2023-04-24T10:43:38.795Z,18.74
2023-04-24T10:44:38.760Z,19.03
2023-04-24T10:45:38.805Z,22.96
2023-04-24T10:46:38.915Z,21.07
2023-04-24T10:47:38.918Z,17.96
2023-04-24T10:48:38.949Z,16.32
2023-04-24T10:49:39.021Z,13.01
2023-04-24T10:50:39.067Z,14.15
2023-04-24T10:51:39.155Z,13.79
2023-04-24T10:52:39.169Z,17.86
2023-04-24T10:53:39.240Z,138.59
2023-04-24T10:54:39.268Z,112.63
2023-04-24T10:55:39.286Z,42.40
2023-04-24T10:56:39.313Z,28.70
2023-04-24T10:57:39.369Z,23.76
2023-04-24T10:58:39.455Z,28.48
2023-04-24T10:59:39.434Z,29.49
2023-04-24T11:00:39.604Z,39.11
2023-04-24T11:01:39.531Z,48.10
2023-04-24T11:02:39.605Z,37.78
2023-04-24T11:03:39.768Z,35.28
2023-04-24T11:04:39.623Z,25.97
2023-04-24T11:05:39.650Z,19.02
2023-04-24T11:06:39.926Z,17.05
2023-04-24T11:07:39.719Z,19.30
2023-04-24T11:08:39.741Z,16.34
2023-04-24T11:09:39.798Z,17.05
2023-04-24T11:10:39.841Z,16.45
2023-04-24T11:11:39.997Z,15.20
2023-04-24T11:12:39.931Z,14.99
2023-04-24T11:13:39.966Z,15.55
2023-04-24T11:14:40.031Z,19.23
2023-04-24T11:15:40.088Z,14.25
2023-04-24T11:16:40.206Z,12.60
2023-04-24T11:17:40.139Z,14.25
2023-04-24T11:18:40.177Z,17.76
2023-04-24T11:19:40.170Z,14.55
2023-04-24T11:20:40.226Z,15.48
2023-04-24T11:21:40.284Z,15.46
2023-04-24T11:22:40.311Z,15.28
2023-04-24T11:23:40.360Z,13.09
2023-04-24T11:24:40.401Z,11.74
2023-04-24T11:25:40.446Z,14.93
2023-04-24T11:26:40.946Z,15.91
2023-04-24T11:27:40.532Z,15.12
2023-04-24T11:28:42.772Z,16.83
2023-04-24T11:29:40.648Z,17.82
2023-04-24T11:30:40.670Z,22.44
2023-04-24T11:31:40.965Z,22.48
2023-04-24T11:32:40.902Z,19.14
2023-04-24T11:33:40.806Z,10.79
2023-04-24T11:34:40.867Z,6.35
2023-04-24T11:35:40.898Z,7.11
2023-04-24T11:36:40.967Z,7.96
2023-04-24T11:37:40.966Z,10.98
2023-04-24T11:38:40.955Z,13.42
2023-04-24T11:39:40.988Z,16.69
2023-04-24T11:40:41.022Z,17.00
2023-04-24T11:41:41.047Z,16.93
2023-04-24T11:42:41.086Z,17.23
2023-04-24T11:43:41.094Z,18.63
2023-04-24T11:44:41.104Z,19.37
2023-04-24T11:45:41.173Z,21.67
2023-04-24T11:46:41.450Z,23.67
2023-04-24T11:47:41.298Z,23.10
2023-04-24T11:48:41.330Z,24.27
2023-04-24T11:49:41.348Z,26.28
2023-04-24T11:50:41.407Z,29.19
2023-04-24T11:51:52.034Z,29.88
2023-04-24T11:52:42.424Z,29.23
2023-04-24T11:53:41.383Z,24.67
2023-04-24T11:54:41.426Z,22.20
2023-04-24T11:55:41.408Z,23.80
2023-04-24T11:56:41.386Z,22.34
2023-04-24T11:57:41.393Z,24.90
2023-04-24T11:58:41.358Z,26.87
2023-04-24T11:59:41.351Z,27.32
2023-04-24T12:00:41.419Z,28.51
2023-04-24T12:01:41.390Z,28.89
2023-04-24T12:02:41.559Z,27.96
2023-04-24T12:03:41.641Z,28.90
2023-04-24T12:04:41.736Z,25.69
2023-04-24T12:05:41.845Z,25.57
2023-04-24T12:06:41.584Z,27.06
2023-04-24T12:07:41.660Z,27.40
2023-04-24T12:08:41.713Z,26.04
2023-04-24T12:09:41.752Z,27.17
2023-04-24T12:10:41.783Z,32.04
2023-04-24T12:11:41.847Z,28.11
2023-04-24T12:12:41.912Z,24.71
2023-04-24T12:13:41.947Z,26.24
2023-04-24T12:14:41.980Z,26.39
2023-04-24T12:15:42.112Z,27.98
2023-04-24T12:16:42.076Z,30.52
2023-04-24T12:17:42.165Z,31.85
2023-04-24T12:18:42.174Z,32.72
2023-04-24T12:19:42.234Z,34.93
2023-04-24T12:20:42.309Z,30.46
2023-04-24T12:21:42.327Z,32.97
2023-04-24T12:22:42.395Z,34.59
2023-04-24T12:23:42.416Z,35.07
2023-04-24T12:24:42.475Z,37.70
2023-04-24T12:25:42.553Z,37.25
2023-04-24T12:26:42.977Z,39.46
2023-04-24T12:27:42.612Z,39.33
2023-04-24T12:28:42.657Z,40.31
2023-04-24T12:29:42.770Z,39.21
2023-04-24T12:30:42.775Z,39.41
2023-04-24T12:31:42.949Z,38.49
2023-04-24T12:32:42.988Z,39.67
2023-04-24T12:33:42.927Z,40.83
2023-04-24T12:34:42.959Z,38.41
2023-04-24T12:35:43.008Z,33.59
2023-04-24T12:36:43.034Z,33.31
2023-04-24T12:37:44.113Z,29.88
2023-04-24T12:38:43.068Z,30.10
2023-04-24T12:39:43.136Z,29.68
2023-04-24T12:40:43.111Z,30.60
2023-04-24T12:41:43.054Z,31.12
2023-04-24T12:42:43.073Z,30.02
2023-04-24T12:43:43.072Z,29.61
2023-04-24T12:44:43.060Z,30.10
2023-04-24T12:45:43.010Z,24.88
2023-04-24T12:46:43.106Z,24.94
2023-04-24T12:47:43.058Z,27.81